createdAt,value
2018-08-25T01:40:54.451Z,0
2018-08-25T03:40:32.675Z,3
2018-08-25T03:48:33.180Z,7
2018-08-25T03:52:03.425Z,10
2018-08-25T03:54:03.521Z,13
2018-08-25T03:55:03.549Z,17
2018-08-25T03:56:03.678Z,20
2018-08-25T03:56:33.629Z,23
2018-08-25T03:57:33.708Z,27
2018-08-25T03:58:03.733Z,30
2018-08-25T03:58:33.750Z,33
2018-08-25T03:59:03.775Z,37
2018-08-25T03:59:33.832Z,40
2018-08-25T04:00:03.842Z,43
2018-08-25T04:00:33.881Z,47
2018-08-25T04:01:03.963Z,50
2018-08-25T04:01:34.001Z,53
2018-08-25T04:02:03.963Z,57
2018-08-25T04:02:33.989Z,63
2018-08-25T04:03:04.041Z,67
2018-08-25T04:03:34.064Z,73
2018-08-25T04:04:04.083Z,80
2018-08-25T04:04:34.136Z,87
2018-08-25T04:05:04.157Z,93
2018-08-25T04:05:34.201Z,100
2018-08-25T04:06:04.228Z,107
2018-08-25T04:06:34.255Z,113
2018-08-25T04:07:04.290Z,120
2018-08-25T04:07:34.345Z,127
2018-08-25T04:08:04.381Z,130
2018-08-25T04:08:34.407Z,133
2018-08-25T04:09:04.421Z,137
2018-08-25T04:09:34.508Z,143
2018-08-25T04:10:04.489Z,150
2018-08-25T04:10:34.504Z,157
2018-08-25T04:11:04.547Z,167
2018-08-25T04:11:34.623Z,177
2018-08-25T04:12:04.616Z,187
2018-08-25T04:12:34.641Z,197
2018-08-25T04:13:04.712Z,210
2018-08-25T04:13:34.706Z,217
2018-08-25T04:14:04.760Z,230
2018-08-25T04:14:34.779Z,243
2018-08-25T04:15:04.820Z,253
2018-08-25T04:15:34.873Z,263
2018-08-25T04:16:04.837Z,273
2018-08-25T04:16:34.889Z,283
2018-08-25T04:17:04.905Z,290
2018-08-25T04:17:34.955Z,293
2018-08-25T04:18:04.968Z,297
2018-08-25T04:18:35.045Z,300
2018-08-25T04:19:05.085Z,303
2018-08-25T04:19:35.082Z,310
2018-08-25T04:20:05.096Z,313
2018-08-25T04:20:35.390Z,323
2018-08-25T04:21:05.162Z,333
2018-08-25T04:21:35.165Z,347
2018-08-25T04:22:05.286Z,360
2018-08-25T04:22:35.267Z,373
2018-08-25T04:23:05.301Z,387
2018-08-25T04:23:35.327Z,400
2018-08-25T04:24:05.344Z,413
2018-08-25T04:24:35.346Z,427
2018-08-25T04:25:05.388Z,437
2018-08-25T04:25:35.428Z,453
2018-08-25T04:26:05.451Z,473
2018-08-25T04:26:35.532Z,500
2018-08-25T04:27:05.502Z,527
2018-08-25T04:27:35.583Z,553
2018-08-25T04:28:05.584Z,577
2018-08-25T04:28:35.626Z,593
2018-08-25T04:29:05.624Z,603
2018-08-25T04:29:35.660Z,617
2018-08-25T04:30:05.683Z,637
2018-08-25T04:30:35.790Z,653
2018-08-25T04:31:05.742Z,677
2018-08-25T04:31:35.778Z,697
2018-08-25T04:32:05.814Z,717
2018-08-25T04:32:35.885Z,737
2018-08-25T04:33:05.869Z,760
2018-08-25T04:33:36.055Z,787
2018-08-25T04:34:05.933Z,807
2018-08-25T04:34:35.961Z,820
2018-08-25T04:35:05.991Z,830
2018-08-25T04:35:36.058Z,843
2018-08-25T04:36:06.054Z,853
2018-08-25T04:36:36.085Z,870
2018-08-25T04:37:06.114Z,890
2018-08-25T04:37:36.181Z,917
2018-08-25T04:38:06.195Z,943
2018-08-25T04:38:36.209Z,967
2018-08-25T04:39:06.256Z,993
2018-08-25T04:39:36.277Z,1013
2018-08-25T04:40:06.295Z,1023
2018-08-25T04:40:36.397Z,1030
2018-08-25T04:41:06.380Z,1040
2018-08-25T04:41:36.437Z,1060
2018-08-25T04:42:06.440Z,1080
2018-08-25T04:42:36.458Z,1107
2018-08-25T04:43:06.529Z,1127
2018-08-25T04:43:36.510Z,1140
2018-08-25T04:44:06.619Z,1147
2018-08-25T04:44:36.617Z,1140
2018-08-25T04:45:06.651Z,1137
2018-08-25T04:45:36.656Z,1143
2018-08-25T04:46:06.704Z,1157
2018-08-25T04:46:36.712Z,1177
2018-08-25T04:47:06.768Z,1193
2018-08-25T04:47:36.756Z,1203
2018-08-25T04:48:06.804Z,1210
2018-08-25T04:48:36.833Z,1217
2018-08-25T04:49:06.854Z,1220
2018-08-25T04:49:36.891Z,1223
2018-08-25T04:50:06.914Z,1220
2018-08-25T04:50:36.940Z,1210
2018-08-25T04:51:06.980Z,1200
2018-08-25T04:51:37.007Z,1187
2018-08-25T04:52:07.040Z,1180
2018-08-25T04:52:37.068Z,1177
2018-08-25T04:53:37.133Z,1190
2018-08-25T04:54:07.186Z,1217
2018-08-25T04:54:37.266Z,1247
2018-08-25T04:55:07.229Z,1287
2018-08-25T04:55:37.324Z,1340
2018-08-25T04:56:07.329Z,1400
2018-08-25T04:56:37.374Z,1460
2018-08-25T04:57:07.388Z,1527
2018-08-25T04:57:37.405Z,1603
2018-08-25T04:58:07.447Z,1683
2018-08-25T04:58:37.467Z,1763
2018-08-25T04:59:07.558Z,1850
2018-08-25T04:59:37.534Z,1930
2018-08-25T05:00:07.580Z,2010
2018-08-25T05:00:37.607Z,2080
2018-08-25T05:01:07.621Z,2137
2018-08-25T05:01:37.655Z,2187
2018-08-25T05:02:07.682Z,2227
2018-08-25T05:02:37.755Z,2257
2018-08-25T05:03:07.743Z,2277
2018-08-25T05:03:37.798Z,2287
2018-08-25T05:04:07.804Z,2290
2018-08-25T05:05:07.871Z,2283
2018-08-25T05:05:37.939Z,2273
2018-08-25T05:06:07.899Z,2263
2018-08-25T05:06:37.980Z,2253
2018-08-25T05:07:07.992Z,2230
2018-08-25T05:07:38.064Z,2197
2018-08-25T05:08:08.049Z,2153
2018-08-25T05:08:38.140Z,2107
2018-08-25T05:09:08.122Z,2043
2018-08-25T05:09:38.142Z,1973
2018-08-25T05:10:08.210Z,1893
2018-08-25T05:10:38.209Z,1797
2018-08-25T05:11:08.251Z,1693
2018-08-25T05:11:38.283Z,1580
2018-08-25T05:12:08.310Z,1473
2018-08-25T05:12:38.340Z,1373
2018-08-25T05:13:08.371Z,1293
2018-08-25T05:13:38.414Z,1240
2018-08-25T05:14:08.432Z,1217
2018-08-25T05:14:38.440Z,1237
2018-08-25T05:15:08.502Z,1293
2018-08-25T05:15:38.528Z,1403
2018-08-25T05:16:08.517Z,1537
2018-08-25T05:16:38.561Z,1680
2018-08-25T05:17:08.632Z,1800
2018-08-25T05:17:38.657Z,1913
2018-08-25T05:18:08.635Z,2007
2018-08-25T05:18:38.703Z,2090
2018-08-25T05:19:08.744Z,2193
2018-08-25T05:19:38.727Z,2310
2018-08-25T05:20:08.761Z,2437
2018-08-25T05:20:38.855Z,2573
2018-08-25T05:21:08.830Z,2707
2018-08-25T05:21:38.853Z,2813
2018-08-25T05:22:08.892Z,2910
2018-08-25T05:22:38.918Z,2990
2018-08-25T05:23:08.945Z,3067
2018-08-25T05:23:38.979Z,3143
2018-08-25T05:24:09.013Z,3210
2018-08-25T05:24:39.040Z,3273
2018-08-25T05:25:09.084Z,3327
2018-08-25T05:25:39.176Z,3380
2018-08-25T05:26:09.149Z,3410
2018-08-25T05:26:39.179Z,3413
2018-08-25T05:27:09.243Z,3397
2018-08-25T05:27:39.287Z,3373
2018-08-25T05:28:09.252Z,3353
2018-08-25T05:28:39.337Z,3320
2018-08-25T05:29:09.322Z,3290
2018-08-25T05:29:39.372Z,3243
2018-08-25T05:30:09.414Z,3200
2018-08-25T05:30:39.713Z,3157
2018-08-25T05:31:09.477Z,3120
2018-08-25T05:31:39.503Z,3080
2018-08-25T05:32:09.519Z,3047
2018-08-25T05:32:39.556Z,3030
2018-08-25T05:33:09.590Z,3023
2018-08-25T05:33:39.615Z,3007
2018-08-25T05:34:09.637Z,2993
2018-08-25T05:34:39.723Z,2987
2018-08-25T05:35:09.699Z,2993
2018-08-25T05:35:39.980Z,3010
2018-08-25T05:36:09.763Z,3027
2018-08-25T05:37:09.807Z,3023
2018-08-25T05:37:39.835Z,3007
2018-08-25T05:38:09.868Z,2973
2018-08-25T05:38:39.900Z,2933
2018-08-25T05:39:09.939Z,2890
2018-08-25T05:39:39.965Z,2837
2018-08-25T05:40:09.992Z,2777
2018-08-25T05:40:40.054Z,2713
2018-08-25T05:41:10.073Z,2653
2018-08-25T05:41:40.113Z,2613
2018-08-25T05:42:10.154Z,2600
2018-08-25T05:42:40.174Z,2593
2018-08-25T05:43:40.243Z,2587
2018-08-25T05:44:10.285Z,2590
2018-08-25T05:44:40.265Z,2607
2018-08-25T05:45:10.357Z,2643
2018-08-25T05:45:40.390Z,2707
2018-08-25T05:46:10.404Z,2760
2018-08-25T05:46:40.407Z,2803
2018-08-25T05:47:10.469Z,2870
2018-08-25T05:47:40.450Z,2950
2018-08-25T05:48:10.500Z,3007
2018-08-25T05:48:40.586Z,3060
2018-08-25T05:49:10.587Z,3077
2018-08-25T05:49:40.613Z,3063
2018-08-25T05:50:10.652Z,3040
2018-08-25T05:50:40.926Z,3043
2018-08-25T05:51:10.719Z,3080
2018-08-25T05:51:40.737Z,3143
2018-08-25T05:52:10.773Z,3227
2018-08-25T05:52:40.807Z,3330
2018-08-25T05:53:10.838Z,3470
2018-08-25T05:53:40.840Z,3640
2018-08-25T05:54:10.880Z,3823
2018-08-25T05:54:40.925Z,3990
2018-08-25T05:55:10.968Z,4167
2018-08-25T05:55:41.225Z,4337
2018-08-25T05:56:11.030Z,4497
2018-08-25T05:56:41.055Z,4647
2018-08-25T05:57:11.096Z,4783
2018-08-25T05:57:41.109Z,4847
2018-08-25T05:58:11.149Z,4867
2018-08-25T05:58:41.132Z,4880
2018-08-25T05:59:11.221Z,4933
2018-08-25T05:59:41.228Z,5053
2018-08-25T06:00:11.273Z,5180
2018-08-25T06:00:41.302Z,5333
2018-08-25T06:01:11.340Z,5497
2018-08-25T06:01:41.391Z,5667
2018-08-25T06:02:11.413Z,5833
2018-08-25T06:02:41.460Z,6000
2018-08-25T06:03:11.475Z,6170
2018-08-25T06:03:41.511Z,6320
2018-08-25T06:04:11.482Z,6477
2018-08-25T06:04:41.546Z,6623
2018-08-25T06:05:11.544Z,6740
2018-08-25T06:05:41.840Z,6827
2018-08-25T06:06:11.606Z,6883
2018-08-25T06:06:41.758Z,6947
2018-08-25T06:07:11.680Z,6973
2018-08-25T06:07:41.714Z,6957
2018-08-25T06:08:11.712Z,6900
2018-08-25T06:08:41.759Z,6840
2018-08-25T06:09:11.821Z,6827
2018-08-25T06:09:41.841Z,6850
2018-08-25T06:10:11.868Z,6920
2018-08-25T06:10:42.193Z,6980
2018-08-25T06:11:11.901Z,7037
2018-08-25T06:11:41.937Z,7040
2018-08-25T06:12:11.961Z,6987
2018-08-25T06:12:42.003Z,6927
2018-08-25T06:13:12.034Z,6847
2018-08-25T06:13:42.060Z,6807
2018-08-25T06:14:12.089Z,6797
2018-08-25T06:14:42.128Z,6817
2018-08-25T06:15:12.146Z,6890
2018-08-25T06:15:42.222Z,7030
2018-08-25T06:16:12.215Z,7187
2018-08-25T06:16:42.263Z,7357
2018-08-25T06:17:12.267Z,7563
2018-08-25T06:17:42.361Z,7757
2018-08-25T06:18:12.385Z,7927
2018-08-25T06:18:42.418Z,8107
2018-08-25T06:19:12.434Z,8313
2018-08-25T06:19:42.469Z,8597
2018-08-25T06:20:12.506Z,8953
2018-08-25T06:20:42.554Z,9400
2018-08-25T06:21:12.558Z,9953
2018-08-25T06:21:42.608Z,10537
2018-08-25T06:22:12.596Z,11130
2018-08-25T06:22:42.638Z,11623
2018-08-25T06:23:12.634Z,11980
2018-08-25T06:23:42.677Z,12197
2018-08-25T06:24:12.765Z,12307
2018-08-25T06:24:42.729Z,12337
2018-08-25T06:25:12.762Z,12347
2018-08-25T06:25:42.816Z,12360
2018-08-25T06:26:12.855Z,12363
2018-08-25T06:26:42.863Z,12403
2018-08-25T06:27:12.887Z,12490
2018-08-25T06:27:42.920Z,12640
2018-08-25T06:28:12.963Z,12853
2018-08-25T06:28:42.974Z,13080
2018-08-25T06:29:13.068Z,13327
2018-08-25T06:29:43.167Z,13557
2018-08-25T06:30:13.171Z,13790
2018-08-25T06:30:43.135Z,13980
2018-08-25T06:31:13.138Z,14187
2018-08-25T06:31:43.212Z,14377
2018-08-25T06:32:13.251Z,14573
2018-08-25T06:32:43.224Z,14697
2018-08-25T06:33:13.297Z,14790
2018-08-25T06:33:43.360Z,14743
2018-08-25T06:34:13.345Z,14547
2018-08-25T06:34:43.392Z,14300
2018-08-25T06:35:13.454Z,14133
2018-08-25T06:35:43.485Z,14057
2018-08-25T06:36:13.467Z,14127
2018-08-25T06:36:43.652Z,14303
2018-08-25T06:37:13.528Z,14517
2018-08-25T06:37:43.613Z,14767
2018-08-25T06:38:13.623Z,15047
2018-08-25T06:38:43.673Z,15300
2018-08-25T06:39:13.695Z,15553
2018-08-25T06:39:43.820Z,15813
2018-08-25T06:40:13.741Z,16047
2018-08-25T06:40:43.808Z,16230
2018-08-25T06:41:13.779Z,16323
2018-08-25T06:41:43.810Z,16317
2018-08-25T06:42:13.875Z,16227
2018-08-25T06:42:44.066Z,16103
2018-08-25T06:43:13.870Z,15990
2018-08-25T06:43:44.072Z,15923
2018-08-25T06:44:13.976Z,15903
2018-08-25T06:44:44.012Z,15897
2018-08-25T06:45:14.052Z,15937
2018-08-25T06:45:44.117Z,16010
2018-08-25T06:46:14.088Z,16127
2018-08-25T06:46:44.109Z,16273
2018-08-25T06:47:14.172Z,16430
2018-08-25T06:47:44.187Z,16587
2018-08-25T06:48:14.244Z,16743
2018-08-25T06:48:44.244Z,16893
2018-08-25T06:49:14.243Z,17007
2018-08-25T06:49:44.296Z,17070
2018-08-25T06:50:14.340Z,17093
2018-08-25T06:51:14.388Z,17073
2018-08-25T06:51:44.423Z,17010
2018-08-25T06:52:14.468Z,16907
2018-08-25T06:52:44.520Z,16710
2018-08-25T06:53:14.524Z,16433
2018-08-25T06:53:44.583Z,16103
2018-08-25T06:54:14.610Z,15710
2018-08-25T06:54:44.580Z,15287
2018-08-25T06:55:14.658Z,14827
2018-08-25T06:55:44.754Z,14347
2018-08-25T06:56:14.713Z,13893
2018-08-25T06:56:44.708Z,13513
2018-08-25T06:57:14.748Z,13240
2018-08-25T06:57:44.798Z,13073
2018-08-25T06:58:14.796Z,13027
2018-08-25T06:58:44.841Z,13070
2018-08-25T06:59:14.859Z,13197
2018-08-25T06:59:44.910Z,13370
2018-08-25T07:00:14.916Z,13603
2018-08-25T07:00:45.003Z,13830
2018-08-25T07:01:15.001Z,14100
2018-08-25T07:01:45.078Z,14413
2018-08-25T07:02:15.090Z,14747
2018-08-25T07:02:45.081Z,15100
2018-08-25T07:03:15.102Z,15423
2018-08-25T07:03:45.136Z,15733
2018-08-25T07:04:15.166Z,16087
2018-08-25T07:04:45.235Z,16493
2018-08-25T07:05:15.224Z,16833
2018-08-25T07:05:45.305Z,17000
2018-08-25T07:06:15.363Z,17027
2018-08-25T07:06:45.326Z,17090
2018-08-25T07:07:15.409Z,17243
2018-08-25T07:07:45.397Z,17540
2018-08-25T07:08:15.451Z,18020
2018-08-25T07:08:45.492Z,18670
2018-08-25T07:09:15.495Z,19257
2018-08-25T07:09:45.504Z,19717
2018-08-25T07:10:15.554Z,19923
2018-08-25T07:10:45.566Z,19710
2018-08-25T07:11:15.868Z,19093
2018-08-25T07:11:45.662Z,18253
2018-08-25T07:12:15.656Z,17433
2018-08-25T07:12:45.753Z,16703
2018-08-25T07:13:15.743Z,16163
2018-08-25T07:13:45.756Z,15833
2018-08-25T07:14:15.780Z,15730
2018-08-25T07:14:45.847Z,15863
2018-08-25T07:15:15.844Z,16153
2018-08-25T07:15:45.871Z,16343
2018-08-25T07:16:15.944Z,16253
2018-08-25T07:16:45.939Z,15920
2018-08-25T07:17:16.051Z,15500
2018-08-25T07:17:46.010Z,15157
2018-08-25T07:18:16.034Z,15017
2018-08-25T07:18:46.114Z,15107
2018-08-25T07:19:16.088Z,15493
2018-08-25T07:19:46.131Z,16110
2018-08-25T07:20:16.212Z,16807
2018-08-25T07:20:46.248Z,17387
2018-08-25T07:21:16.300Z,17833
2018-08-25T07:21:46.244Z,18323
2018-08-25T07:22:16.309Z,18847
2018-08-25T07:22:46.299Z,19200
2018-08-25T07:23:16.361Z,19203
2018-08-25T07:23:46.387Z,18870
2018-08-25T07:24:16.440Z,18293
2018-08-25T07:24:46.465Z,17587
2018-08-25T07:25:16.501Z,16937
2018-08-25T07:25:46.548Z,16637
2018-08-25T07:26:16.775Z,16930
2018-08-25T07:26:46.579Z,17643
2018-08-25T07:27:16.678Z,18603
2018-08-25T07:27:46.649Z,19510
2018-08-25T07:28:16.681Z,19803
2018-08-25T07:28:46.719Z,19843
2018-08-25T07:29:16.707Z,19797
2018-08-25T07:29:46.766Z,19603
2018-08-25T07:30:16.773Z,19117
2018-08-25T07:30:46.825Z,18233
2018-08-25T07:31:16.828Z,17213
2018-08-25T07:31:46.901Z,16333
2018-08-25T07:32:17.102Z,15673
2018-08-25T07:32:46.955Z,15053
2018-08-25T07:33:16.949Z,14390
2018-08-25T07:33:47.020Z,13920
2018-08-25T07:34:17.088Z,14130
2018-08-25T07:34:47.073Z,14837
2018-08-25T07:35:17.150Z,15143
2018-08-25T07:35:47.153Z,15163
2018-08-25T07:36:17.135Z,15173
2018-08-25T07:36:47.227Z,15347
2018-08-25T07:37:17.334Z,15613
2018-08-25T07:37:47.306Z,16010
2018-08-25T07:38:17.364Z,16590
2018-08-25T07:38:47.379Z,17180
2018-08-25T07:39:17.384Z,17613
2018-08-25T07:39:47.385Z,17750
2018-08-25T07:40:17.451Z,17663
2018-08-25T07:40:47.482Z,17610
2018-08-25T07:41:17.481Z,17537
2018-08-25T07:41:47.541Z,17447
2018-08-25T07:42:17.540Z,17627
2018-08-25T07:42:47.565Z,18730
2018-08-25T07:43:17.671Z,20440
2018-08-25T07:43:47.603Z,22277
2018-08-25T07:44:17.709Z,24110
2018-08-25T07:44:47.667Z,26030
2018-08-25T07:45:17.787Z,27193
2018-08-25T07:45:47.732Z,28503
2018-08-25T07:46:17.760Z,29747
2018-08-25T07:46:47.791Z,31147
2018-08-25T07:47:17.829Z,32510
2018-08-25T07:47:47.897Z,33967
2018-08-25T07:48:17.891Z,34513
2018-08-25T07:48:47.918Z,34403
2018-08-25T07:49:18.029Z,34217
2018-08-25T07:49:47.977Z,33837
2018-08-25T07:50:18.002Z,33280
2018-08-25T07:50:48.040Z,32010
2018-08-25T07:51:18.066Z,31103
2018-08-25T07:51:48.099Z,29733
2018-08-25T07:52:18.165Z,28583
2018-08-25T07:52:48.201Z,27813
2018-08-25T07:53:18.193Z,27433
2018-08-25T07:53:48.361Z,27353
2018-08-25T07:54:18.314Z,27090
2018-08-25T07:54:48.336Z,26477
2018-08-25T07:55:18.447Z,25210
2018-08-25T07:55:48.455Z,23840
2018-08-25T07:56:18.430Z,22107
2018-08-25T07:56:48.462Z,20637
2018-08-25T07:57:18.493Z,19173
2018-08-25T07:57:48.510Z,18037
2018-08-25T07:58:18.597Z,17603
2018-08-25T07:58:48.543Z,17517
2018-08-25T07:59:18.834Z,18017
2018-08-25T07:59:48.656Z,18850
2018-08-25T08:00:18.658Z,20073
2018-08-25T08:00:48.667Z,21383
2018-08-25T08:01:18.737Z,22887
2018-08-25T08:01:48.735Z,24427
2018-08-25T08:02:18.760Z,26030
2018-08-25T08:02:48.831Z,27657
2018-08-25T08:03:18.835Z,29103
2018-08-25T08:03:48.860Z,30423
2018-08-25T08:04:19.160Z,31733
2018-08-25T08:04:48.957Z,33150
2018-08-25T08:05:18.941Z,33753
2018-08-25T08:05:48.964Z,34663
2018-08-25T08:06:18.995Z,34830
2018-08-25T08:06:49.029Z,34813
2018-08-25T08:07:19.055Z,34957
2018-08-25T08:07:49.108Z,35253
2018-08-25T08:08:19.149Z,35467
2018-08-25T08:08:49.213Z,35927
2018-08-25T08:09:19.209Z,36350
2018-08-25T08:09:49.234Z,36543
2018-08-25T08:10:19.283Z,36243
2018-08-25T08:10:49.271Z,35657
2018-08-25T08:11:19.324Z,34990
2018-08-25T08:11:49.493Z,33903
2018-08-25T08:12:19.568Z,33150
2018-08-25T08:12:49.451Z,32040
2018-08-25T08:13:19.479Z,31247
2018-08-25T08:13:49.501Z,30570
2018-08-25T08:14:19.795Z,29930
2018-08-25T08:14:49.564Z,29457
2018-08-25T08:15:19.610Z,28890
2018-08-25T08:15:49.654Z,28513
2018-08-25T08:16:19.671Z,28053
2018-08-25T08:16:49.673Z,27367
2018-08-25T08:17:19.742Z,26610
2018-08-25T08:17:49.763Z,25717
2018-08-25T08:18:19.776Z,24897
2018-08-25T08:18:49.820Z,24263
2018-08-25T08:19:19.903Z,23607
2018-08-25T08:19:49.869Z,23070
2018-08-25T08:20:19.932Z,22620
2018-08-25T08:20:49.946Z,22350
2018-08-25T08:21:19.949Z,22337
2018-08-25T08:21:49.996Z,22857
2018-08-25T08:22:20.057Z,24133
2018-08-25T08:22:50.058Z,25860
2018-08-25T08:23:20.067Z,27720
2018-08-25T08:23:50.112Z,29567
2018-08-25T08:24:20.196Z,31213
2018-08-25T08:24:50.165Z,32737
2018-08-25T08:25:20.193Z,33967
2018-08-25T08:25:50.234Z,34763
2018-08-25T08:26:20.338Z,35483
2018-08-25T08:26:50.299Z,36327
2018-08-25T08:27:20.305Z,37337
2018-08-25T08:27:50.382Z,38453
2018-08-25T08:28:20.348Z,39470
2018-08-25T08:28:50.434Z,40373
2018-08-25T08:29:20.657Z,41480
2018-08-25T08:29:50.458Z,42707
2018-08-25T08:30:20.476Z,43363
2018-08-25T08:30:50.549Z,43217
2018-08-25T08:31:20.564Z,41690
2018-08-25T08:31:50.578Z,40703
2018-08-25T08:32:20.605Z,38703
2018-08-25T08:32:50.662Z,37550
2018-08-25T08:33:20.659Z,35187
2018-08-25T08:33:50.700Z,32873
2018-08-25T08:34:20.745Z,29937
2018-08-25T08:34:50.755Z,26493
2018-08-25T08:35:20.790Z,23400
2018-08-25T08:35:50.807Z,21160
2018-08-25T08:36:20.883Z,19437
2018-08-25T08:36:50.873Z,17750
2018-08-25T08:37:20.936Z,15923
2018-08-25T08:37:50.938Z,14843
2018-08-25T08:38:21.004Z,14287
2018-08-25T08:38:50.998Z,13900
2018-08-25T08:39:21.112Z,13923
2018-08-25T08:39:51.076Z,14057
2018-08-25T08:40:21.195Z,14320
2018-08-25T08:40:51.125Z,14590
2018-08-25T08:41:21.191Z,15170
2018-08-25T08:41:51.179Z,16110
2018-08-25T08:42:21.345Z,16963
2018-08-25T08:42:51.287Z,17017
2018-08-25T08:43:21.272Z,16600
2018-08-25T08:43:51.355Z,16273
2018-08-25T08:44:21.399Z,15907
2018-08-25T08:44:51.403Z,15447
2018-08-25T08:45:21.491Z,15803
2018-08-25T08:45:51.439Z,16947
2018-08-25T08:46:21.565Z,18207
2018-08-25T08:46:51.538Z,19590
2018-08-25T08:47:21.572Z,20620
2018-08-25T08:47:51.572Z,21257
2018-08-25T08:48:21.609Z,20620
2018-08-25T08:48:51.640Z,18990
2018-08-25T08:49:21.684Z,17000
2018-08-25T08:49:51.695Z,15410
2018-08-25T08:50:21.887Z,14183
2018-08-25T08:50:51.737Z,13280
2018-08-25T08:51:21.761Z,12983
2018-08-25T08:51:51.815Z,13827
2018-08-25T08:52:21.835Z,15323
2018-08-25T08:52:51.868Z,17003
2018-08-25T08:53:21.947Z,18450
2018-08-25T08:53:51.947Z,19627
2018-08-25T08:54:21.950Z,20147
2018-08-25T08:54:52.004Z,20010
2018-08-25T08:55:22.355Z,19423
2018-08-25T08:55:52.056Z,18763
2018-08-25T08:56:22.069Z,17690
2018-08-25T08:56:52.117Z,16447
2018-08-25T08:57:22.132Z,15357
2018-08-25T08:57:52.167Z,14173
2018-08-25T08:58:22.317Z,13553
2018-08-25T08:58:52.245Z,13527
2018-08-25T08:59:22.280Z,13690
2018-08-25T08:59:52.289Z,14243
2018-08-25T09:00:22.408Z,14790
2018-08-25T09:00:52.372Z,15243
2018-08-25T09:01:22.407Z,15810
2018-08-25T09:01:52.478Z,16683
2018-08-25T09:02:22.475Z,18070
2018-08-25T09:02:52.544Z,20043
2018-08-25T09:03:22.637Z,22170
2018-08-25T09:03:52.575Z,23960
2018-08-25T09:04:22.631Z,25197
2018-08-25T09:04:52.629Z,25600
2018-08-25T09:05:22.701Z,25283
2018-08-25T09:05:52.708Z,23533
2018-08-25T09:06:22.784Z,21627
2018-08-25T09:06:52.767Z,20167
2018-08-25T09:07:22.794Z,19367
2018-08-25T09:07:52.821Z,19480
2018-08-25T09:08:22.877Z,20597
2018-08-25T09:08:52.886Z,21900
2018-08-25T09:09:22.909Z,23203
2018-08-25T09:09:52.915Z,24333
2018-08-25T09:10:23.015Z,24573
2018-08-25T09:10:53.000Z,24123
2018-08-25T09:11:23.079Z,23653
2018-08-25T09:11:53.144Z,23650
2018-08-25T09:12:23.080Z,24683
2018-08-25T09:12:53.139Z,26597
2018-08-25T09:13:23.160Z,28893
2018-08-25T09:13:53.189Z,29527
2018-08-25T09:14:23.226Z,28110
2018-08-25T09:14:53.261Z,26463
2018-08-25T09:15:23.284Z,25197
2018-08-25T09:15:53.303Z,24763
2018-08-25T09:16:23.305Z,24923
2018-08-25T09:16:53.390Z,26920
2018-08-25T09:17:23.439Z,28837
2018-08-25T09:17:53.447Z,29003
2018-08-25T09:18:23.442Z,26517
2018-08-25T09:18:53.498Z,24083
2018-08-25T09:19:23.567Z,21590
2018-08-25T09:19:53.556Z,19320
2018-08-25T09:20:23.564Z,17740
2018-08-25T09:20:53.631Z,16483
2018-08-25T09:21:23.663Z,15813
2018-08-25T09:21:53.652Z,15503
2018-08-25T09:22:23.707Z,15673
2018-08-25T09:22:53.717Z,17110
2018-08-25T09:23:23.788Z,19377
2018-08-25T09:23:53.762Z,22493
2018-08-25T09:24:23.798Z,25763
2018-08-25T09:24:53.852Z,28573
2018-08-25T09:25:23.856Z,31163
2018-08-25T09:25:53.928Z,34150
2018-08-25T09:26:23.961Z,38253
2018-08-25T09:26:54.041Z,41933
2018-08-25T09:27:24.048Z,51997
2018-08-25T09:27:54.040Z,47810
2018-08-25T09:28:24.047Z,47307
2018-08-25T09:28:54.128Z,49487
2018-08-25T09:29:24.109Z,54203
2018-08-25T09:29:54.158Z,57373
2018-08-25T09:30:24.174Z,60833
2018-08-25T09:30:54.240Z,63527
2018-08-25T09:31:24.269Z,62957
2018-08-25T09:31:54.320Z,61120
2018-08-25T09:32:24.317Z,56120
2018-08-25T09:32:54.482Z,50463
2018-08-25T09:33:24.375Z,44367
2018-08-25T09:33:54.427Z,39453
2018-08-25T09:34:24.422Z,34917
2018-08-25T09:34:54.502Z,31943
2018-08-25T09:35:24.507Z,29580
2018-08-25T09:35:54.733Z,27747
2018-08-25T09:36:24.680Z,27700
2018-08-25T09:36:54.707Z,28803
2018-08-25T09:37:24.603Z,31777
2018-08-25T09:37:54.678Z,35523
2018-08-25T09:38:24.670Z,40323
2018-08-25T09:38:54.721Z,42793
2018-08-25T09:39:24.731Z,42567
2018-08-25T09:39:54.829Z,38557
2018-08-25T09:40:24.778Z,35873
2018-08-25T09:40:54.810Z,43997
2018-08-25T09:41:24.835Z,32037
2018-08-25T09:41:54.880Z,27903
2018-08-25T09:42:24.900Z,26710
2018-08-25T09:42:54.948Z,27200
2018-08-25T09:43:24.972Z,28787
2018-08-25T09:43:54.995Z,30827
2018-08-25T09:44:25.021Z,32767
2018-08-25T09:44:55.075Z,35240
2018-08-25T09:45:25.093Z,36497
2018-08-25T09:45:55.119Z,38867
2018-08-25T09:46:25.192Z,41327
2018-08-25T09:46:55.260Z,44763
2018-08-25T09:47:25.285Z,47237
2018-08-25T09:47:55.280Z,48347
2018-08-25T09:48:25.351Z,47970
2018-08-25T09:48:55.368Z,47010
2018-08-25T09:49:25.330Z,46000
2018-08-25T09:49:55.428Z,45130
2018-08-25T09:50:25.443Z,44053
2018-08-25T09:50:55.447Z,42790
2018-08-25T09:51:25.476Z,40920
2018-08-25T09:51:55.539Z,39260
2018-08-25T09:52:25.620Z,37703
2018-08-25T09:52:55.588Z,36923
2018-08-25T09:53:25.709Z,37250
2018-08-25T09:53:55.644Z,39367
2018-08-25T09:54:25.688Z,42013
2018-08-25T09:54:55.717Z,43520
2018-08-25T09:55:25.760Z,43433
2018-08-25T09:55:55.784Z,43923
2018-08-25T09:56:25.809Z,45827
2018-08-25T09:56:55.829Z,48780
2018-08-25T09:57:25.842Z,52630
2018-08-25T09:57:55.900Z,55413
2018-08-25T09:58:25.923Z,57633
2018-08-25T09:58:56.026Z,56113
2018-08-25T09:59:26.020Z,55023
2018-08-25T09:59:56.031Z,54230
2018-08-25T10:00:26.075Z,54650
2018-08-25T10:00:56.097Z,55247
2018-08-25T10:01:26.143Z,55467
2018-08-25T10:01:56.148Z,55757
2018-08-25T10:02:26.211Z,54813
2018-08-25T10:02:56.215Z,52713
2018-08-25T10:03:26.291Z,50660
2018-08-25T10:03:56.230Z,47753
2018-08-25T10:04:26.323Z,45060
2018-08-25T10:04:56.331Z,43093
2018-08-25T10:05:26.346Z,41597
2018-08-25T10:05:56.456Z,40963
2018-08-25T10:06:26.386Z,41720
2018-08-25T10:06:56.463Z,41820
2018-08-25T10:07:26.474Z,41760
2018-08-25T10:07:56.498Z,44177
2018-08-25T10:08:26.580Z,47133
2018-08-25T10:08:56.589Z,51260
2018-08-25T10:09:26.596Z,46420
2018-08-25T10:09:56.595Z,44953
2018-08-25T10:10:26.706Z,43137
2018-08-25T10:10:56.762Z,40837
2018-08-25T10:11:26.695Z,38817
2018-08-25T10:11:56.743Z,37990
2018-08-25T10:12:26.788Z,37743
2018-08-25T10:12:56.780Z,38440
2018-08-25T10:13:26.814Z,39110
2018-08-25T10:13:56.842Z,39470
2018-08-25T10:14:26.886Z,39293
2018-08-25T10:14:56.908Z,38963
2018-08-25T10:15:26.947Z,37737
2018-08-25T10:15:56.971Z,36297
2018-08-25T10:16:27.014Z,34197
2018-08-25T10:16:57.122Z,32407
2018-08-25T10:17:27.068Z,30943
2018-08-25T10:17:57.093Z,29723
2018-08-25T10:18:27.134Z,28237
2018-08-25T10:18:57.150Z,25773
2018-08-25T10:19:27.185Z,23467
2018-08-25T10:19:57.230Z,22020
2018-08-25T10:20:27.250Z,21020
2018-08-25T10:20:57.394Z,20530
2018-08-25T10:21:27.330Z,20260
2018-08-25T10:21:57.400Z,20287
2018-08-25T10:22:27.396Z,20337
2018-08-25T10:22:57.500Z,19877
2018-08-25T10:23:27.486Z,19413
2018-08-25T10:23:57.521Z,18220
2018-08-25T10:24:27.538Z,17427
2018-08-25T10:26:34.851Z,18127
2018-08-25T10:26:57.675Z,19330
2018-08-25T10:27:27.671Z,20493
2018-08-25T10:27:57.726Z,21710
2018-08-25T10:28:27.736Z,22880
2018-08-25T10:28:57.873Z,24053
2018-08-25T10:29:27.805Z,25653
2018-08-25T10:29:57.839Z,27390
2018-08-25T10:30:27.863Z,29343